sensor_id;sensor_type;location;lat;lon;timestamp;P1;durP1;ratioP1;P2;durP2;ratioP2
19621;SDS011;9958;33.196;-97.114;2023-05-14T00:00:37;1.10;;;1.10;;
19621;SDS011;9958;33.196;-97.114;2023-05-14T00:03:07;1.02;;;1.00;;
19621;SDS011;9958;33.196;-97.114;2023-05-14T00:05:35;1.10;;;1.00;;
19621;SDS011;9958;33.196;-97.114;2023-05-14T00:08:04;2.47;;;1.30;;
19621;SDS011;9958;33.196;-97.114;2023-05-14T00:10:32;1.40;;;1.20;;
19621;SDS011;9958;33.196;-97.114;2023-05-14T00:13:00;1.10;;;1.10;;
19621;SDS011;9958;33.196;-97.114;2023-05-14T00:15:29;3.53;;;1.23;;
19621;SDS011;9958;33.196;-97.114;2023-05-14T00:17:57;1.40;;;1.30;;
19621;SDS011;9958;33.196;-97.114;2023-05-14T00:20:27;2.10;;;1.15;;
19621;SDS011;9958;33.196;-97.114;2023-05-14T00:22:56;1.25;;;1.20;;
19621;SDS011;9958;33.196;-97.114;2023-05-14T00:25:25;1.70;;;1.10;;
19621;SDS011;9958;33.196;-97.114;2023-05-14T00:27:53;2.63;;;1.30;;
19621;SDS011;9958;33.196;-97.114;2023-05-14T00:30:21;1.55;;;1.20;;
19621;SDS011;9958;33.196;-97.114;2023-05-14T00:32:50;1.08;;;0.98;;
19621;SDS011;9958;33.196;-97.114;2023-05-14T00:35:18;1.40;;;1.30;;
19621;SDS011;9958;33.196;-97.114;2023-05-14T00:37:48;2.70;;;1.20;;
19621;SDS011;9958;33.196;-97.114;2023-05-14T00:40:17;0.93;;;0.93;;
19621;SDS011;9958;33.196;-97.114;2023-05-14T00:42:45;1.58;;;1.27;;
19621;SDS011;9958;33.196;-97.114;2023-05-14T00:45:14;1.17;;;1.08;;
19621;SDS011;9958;33.196;-97.114;2023-05-14T00:47:42;1.50;;;1.40;;
19621;SDS011;9958;33.196;-97.114;2023-05-14T00:50:10;3.00;;;1.20;;
19621;SDS011;9958;33.196;-97.114;2023-05-14T00:52:40;0.98;;;0.88;;
19621;SDS011;9958;33.196;-97.114;2023-05-14T00:55:10;1.27;;;1.17;;
19621;SDS011;9958;33.196;-97.114;2023-05-14T00:57:40;1.55;;;1.20;;
19621;SDS011;9958;33.196;-97.114;2023-05-14T01:00:09;2.00;;;1.20;;
19621;SDS011;9958;33.196;-97.114;2023-05-14T01:02:38;1.30;;;1.30;;
19621;SDS011;9958;33.196;-97.114;2023-05-14T01:05:07;1.13;;;1.10;;
19621;SDS011;9958;33.196;-97.114;2023-05-14T01:07:38;1.20;;;1.20;;
19621;SDS011;9958;33.196;-97.114;2023-05-14T01:10:19;1.35;;;1.25;;
19621;SDS011;9958;33.196;-97.114;2023-05-14T01:12:51;1.30;;;1.17;;
19621;SDS011;9958;33.196;-97.114;2023-05-14T01:15:29;1.48;;;1.38;;
19621;SDS011;9958;33.196;-97.114;2023-05-14T01:18:00;1.33;;;1.17;;
19621;SDS011;9958;33.196;-97.114;2023-05-14T01:20:31;1.45;;;1.20;;
19621;SDS011;9958;33.196;-97.114;2023-05-14T01:23:02;1.40;;;1.30;;
19621;SDS011;9958;33.196;-97.114;2023-05-14T01:25:30;2.30;;;1.20;;
19621;SDS011;9958;33.196;-97.114;2023-05-14T01:28:00;2.10;;;1.20;;
19621;SDS011;9958;33.196;-97.114;2023-05-14T01:30:33;2.72;;;1.30;;
19621;SDS011;9958;33.196;-97.114;2023-05-14T01:33:05;1.88;;;1.10;;
19621;SDS011;9958;33.196;-97.114;2023-05-14T01:35:37;3.25;;;1.20;;
19621;SDS011;9958;33.196;-97.114;2023-05-14T01:38:08;2.13;;;1.20;;
19621;SDS011;9958;33.196;-97.114;2023-05-14T01:40:38;1.00;;;1.00;;
19621;SDS011;9958;33.196;-97.114;2023-05-14T01:43:07;1.35;;;1.25;;
19621;SDS011;9958;33.196;-97.114;2023-05-14T01:45:36;1.90;;;1.27;;
19621;SDS011;9958;33.196;-97.114;2023-05-14T01:48:04;1.33;;;1.10;;
19621;SDS011;9958;33.196;-97.114;2023-05-14T01:50:33;1.77;;;1.30;;
19621;SDS011;9958;33.196;-97.114;2023-05-14T01:53:01;1.05;;;1.05;;
19621;SDS011;9958;33.196;-97.114;2023-05-14T01:55:31;1.45;;;1.30;;
19621;SDS011;9958;33.196;-97.114;2023-05-14T01:57:59;1.92;;;1.42;;
19621;SDS011;9958;33.196;-97.114;2023-05-14T02:00:28;1.60;;;1.35;;
19621;SDS011;9958;33.196;-97.114;2023-05-14T02:02:56;1.10;;;1.00;;
19621;SDS011;9958;33.196;-97.114;2023-05-14T02:05:24;1.98;;;1.10;;
19621;SDS011;9958;33.196;-97.114;2023-05-14T02:07:53;1.40;;;1.30;;
19621;SDS011;9958;33.196;-97.114;2023-05-14T02:10:21;1.23;;;1.15;;
19621;SDS011;9958;33.196;-97.114;2023-05-14T02:12:51;1.10;;;1.08;;
19621;SDS011;9958;33.196;-97.114;2023-05-14T02:15:19;1.48;;;1.38;;
19621;SDS011;9958;33.196;-97.114;2023-05-14T02:17:48;1.50;;;1.40;;
19621;SDS011;9958;33.196;-97.114;2023-05-14T02:20:16;1.70;;;1.20;;
19621;SDS011;9958;33.196;-97.114;2023-05-14T02:22:44;2.13;;;1.38;;
19621;SDS011;9958;33.196;-97.114;2023-05-14T02:25:13;1.33;;;1.10;;
19621;SDS011;9958;33.196;-97.114;2023-05-14T02:27:41;1.92;;;1.20;;
19621;SDS011;9958;33.196;-97.114;2023-05-14T02:30:11;1.35;;;1.25;;
19621;SDS011;9958;33.196;-97.114;2023-05-14T02:32:40;2.22;;;1.33;;
19621;SDS011;9958;33.196;-97.114;2023-05-14T02:35:08;1.85;;;1.30;;
19621;SDS011;9958;33.196;-97.114;2023-05-14T02:37:37;1.58;;;1.48;;
19621;SDS011;9958;33.196;-97.114;2023-05-14T02:40:05;1.50;;;1.40;;
19621;SDS011;9958;33.196;-97.114;2023-05-14T02:42:35;1.65;;;1.30;;
19621;SDS011;9958;33.196;-97.114;2023-05-14T02:45:03;1.42;;;1.10;;
19621;SDS011;9958;33.196;-97.114;2023-05-14T02:47:34;2.60;;;1.40;;
19621;SDS011;9958;33.196;-97.114;2023-05-14T02:50:02;1.85;;;1.35;;
19621;SDS011;9958;33.196;-97.114;2023-05-14T02:52:31;1.33;;;1.23;;
19621;SDS011;9958;33.196;-97.114;2023-05-14T02:55:01;1.80;;;1.67;;
19621;SDS011;9958;33.196;-97.114;2023-05-14T02:57:30;2.60;;;1.38;;
19621;SDS011;9958;33.196;-97.114;2023-05-14T02:59:58;2.38;;;1.40;;
19621;SDS011;9958;33.196;-97.114;2023-05-14T03:02:26;1.40;;;1.23;;
19621;SDS011;9958;33.196;-97.114;2023-05-14T03:04:57;1.85;;;1.15;;
19621;SDS011;9958;33.196;-97.114;2023-05-14T03:07:25;2.55;;;1.52;;
19621;SDS011;9958;33.196;-97.114;2023-05-14T03:09:53;2.25;;;1.60;;
19621;SDS011;9958;33.196;-97.114;2023-05-14T03:12:22;1.40;;;1.30;;
19621;SDS011;9958;33.196;-97.114;2023-05-14T03:14:50;1.75;;;1.23;;
19621;SDS011;9958;33.196;-97.114;2023-05-14T03:17:18;1.27;;;1.17;;
19621;SDS011;9958;33.196;-97.114;2023-05-14T03:19:46;2.53;;;1.35;;
19621;SDS011;9958;33.196;-97.114;2023-05-14T03:22:17;1.50;;;1.40;;
19621;SDS011;9958;33.196;-97.114;2023-05-14T03:24:46;1.70;;;1.20;;
19621;SDS011;9958;33.196;-97.114;2023-05-14T03:27:14;1.88;;;1.52;;
19621;SDS011;9958;33.196;-97.114;2023-05-14T03:29:42;2.67;;;1.75;;
19621;SDS011;9958;33.196;-97.114;2023-05-14T03:32:11;1.30;;;1.20;;
19621;SDS011;9958;33.196;-97.114;2023-05-14T03:34:39;1.70;;;1.42;;
19621;SDS011;9958;33.196;-97.114;2023-05-14T03:37:09;1.50;;;1.40;;
19621;SDS011;9958;33.196;-97.114;2023-05-14T03:39:39;3.65;;;1.58;;
19621;SDS011;9958;33.196;-97.114;2023-05-14T03:42:07;2.25;;;1.70;;
19621;SDS011;9958;33.196;-97.114;2023-05-14T03:44:35;2.20;;;1.45;;
19621;SDS011;9958;33.196;-97.114;2023-05-14T03:47:04;1.70;;;1.60;;
19621;SDS011;9958;33.196;-97.114;2023-05-14T03:49:32;2.33;;;1.45;;
19621;SDS011;9958;33.196;-97.114;2023-05-14T03:52:00;2.75;;;1.90;;
19621;SDS011;9958;33.196;-97.114;2023-05-14T03:54:29;2.28;;;1.67;;
19621;SDS011;9958;33.196;-97.114;2023-05-14T03:56:59;1.70;;;1.55;;
19621;SDS011;9958;33.196;-97.114;2023-05-14T03:59:27;3.42;;;1.83;;
19621;SDS011;9958;33.196;-97.114;2023-05-14T04:01:56;1.80;;;1.63;;
19621;SDS011;9958;33.196;-97.114;2023-05-14T04:04:24;1.55;;;1.42;;
19621;SDS011;9958;33.196;-97.114;2023-05-14T04:06:52;1.73;;;1.63;;
19621;SDS011;9958;33.196;-97.114;2023-05-14T04:09:21;3.15;;;1.48;;
19621;SDS011;9958;33.196;-97.114;2023-05-14T04:11:49;1.52;;;1.40;;
19621;SDS011;9958;33.196;-97.114;2023-05-14T04:14:19;1.75;;;1.65;;
19621;SDS011;9958;33.196;-97.114;2023-05-14T04:16:47;1.73;;;1.50;;
19621;SDS011;9958;33.196;-97.114;2023-05-14T04:19:15;1.85;;;1.58;;
19621;SDS011;9958;33.196;-97.114;2023-05-14T04:21:44;1.63;;;1.38;;
19621;SDS011;9958;33.196;-97.114;2023-05-14T04:24:12;2.05;;;1.55;;
19621;SDS011;9958;33.196;-97.114;2023-05-14T04:26:40;1.60;;;1.50;;
19621;SDS011;9958;33.196;-97.114;2023-05-14T04:29:09;2.08;;;1.55;;
19621;SDS011;9958;33.196;-97.114;2023-05-14T04:31:38;2.17;;;1.80;;
19621;SDS011;9958;33.196;-97.114;2023-05-14T04:34:07;1.58;;;1.45;;
19621;SDS011;9958;33.196;-97.114;2023-05-14T04:36:35;2.33;;;1.65;;
19621;SDS011;9958;33.196;-97.114;2023-05-14T04:39:04;1.95;;;1.63;;
19621;SDS011;9958;33.196;-97.114;2023-05-14T04:41:33;3.75;;;1.70;;
19621;SDS011;9958;33.196;-97.114;2023-05-14T04:44:02;2.05;;;1.83;;
19621;SDS011;9958;33.196;-97.114;2023-05-14T04:46:30;2.22;;;1.63;;
19621;SDS011;9958;33.196;-97.114;2023-05-14T04:49:00;2.92;;;1.63;;
19621;SDS011;9958;33.196;-97.114;2023-05-14T04:51:28;2.40;;;1.75;;
19621;SDS011;9958;33.196;-97.114;2023-05-14T04:53:57;1.95;;;1.58;;
19621;SDS011;9958;33.196;-97.114;2023-05-14T04:56:25;1.67;;;1.55;;
19621;SDS011;9958;33.196;-97.114;2023-05-14T04:58:53;1.67;;;1.50;;
19621;SDS011;9958;33.196;-97.114;2023-05-14T05:01:22;1.35;;;1.25;;
19621;SDS011;9958;33.196;-97.114;2023-05-14T05:03:50;2.33;;;1.50;;
19621;SDS011;9958;33.196;-97.114;2023-05-14T05:06:20;2.13;;;1.75;;
19621;SDS011;9958;33.196;-97.114;2023-05-14T05:08:48;4.25;;;1.52;;
19621;SDS011;9958;33.196;-97.114;2023-05-14T05:11:16;1.95;;;1.80;;
19621;SDS011;9958;33.196;-97.114;2023-05-14T05:13:45;1.75;;;1.60;;
19621;SDS011;9958;33.196;-97.114;2023-05-14T05:16:14;1.90;;;1.70;;
19621;SDS011;9958;33.196;-97.114;2023-05-14T05:18:42;3.63;;;2.03;;
19621;SDS011;9958;33.196;-97.114;2023-05-14T05:21:10;3.95;;;2.08;;
19621;SDS011;9958;33.196;-97.114;2023-05-14T05:23:40;3.67;;;2.10;;
19621;SDS011;9958;33.196;-97.114;2023-05-14T05:26:09;2.67;;;2.05;;
19621;SDS011;9958;33.196;-97.114;2023-05-14T05:28:37;2.63;;;1.60;;
19621;SDS011;9958;33.196;-97.114;2023-05-14T05:31:05;2.60;;;1.70;;
19621;SDS011;9958;33.196;-97.114;2023-05-14T05:33:34;2.55;;;1.70;;
19621;SDS011;9958;33.196;-97.114;2023-05-14T05:36:02;2.35;;;2.00;;
19621;SDS011;9958;33.196;-97.114;2023-05-14T05:38:31;1.70;;;1.60;;
19621;SDS011;9958;33.196;-97.114;2023-05-14T05:41:00;2.55;;;1.90;;
19621;SDS011;9958;33.196;-97.114;2023-05-14T05:43:29;2.22;;;1.80;;
19621;SDS011;9958;33.196;-97.114;2023-05-14T05:45:58;2.83;;;1.67;;
19621;SDS011;9958;33.196;-97.114;2023-05-14T05:48:27;1.95;;;1.70;;
19621;SDS011;9958;33.196;-97.114;2023-05-14T05:50:55;2.03;;;1.83;;
19621;SDS011;9958;33.196;-97.114;2023-05-14T05:53:24;2.00;;;1.60;;
19621;SDS011;9958;33.196;-97.114;2023-05-14T05:55:52;1.88;;;1.70;;
19621;SDS011;9958;33.196;-97.114;2023-05-14T05:58:22;3.85;;;1.80;;
19621;SDS011;9958;33.196;-97.114;2023-05-14T06:00:50;2.67;;;1.92;;
19621;SDS011;9958;33.196;-97.114;2023-05-14T06:03:19;4.13;;;1.73;;
19621;SDS011;9958;33.196;-97.114;2023-05-14T06:05:47;1.88;;;1.60;;
19621;SDS011;9958;33.196;-97.114;2023-05-14T06:08:16;1.77;;;1.67;;
19621;SDS011;9958;33.196;-97.114;2023-05-14T06:10:45;3.45;;;1.80;;
19621;SDS011;9958;33.196;-97.114;2023-05-14T06:13:13;1.80;;;1.70;;
19621;SDS011;9958;33.196;-97.114;2023-05-14T06:15:43;1.40;;;1.30;;
19621;SDS011;9958;33.196;-97.114;2023-05-14T06:18:11;1.90;;;1.77;;
19621;SDS011;9958;33.196;-97.114;2023-05-14T06:20:40;2.88;;;1.65;;
19621;SDS011;9958;33.196;-97.114;2023-05-14T06:23:08;2.03;;;1.60;;
19621;SDS011;9958;33.196;-97.114;2023-05-14T06:25:36;2.45;;;1.80;;
19621;SDS011;9958;33.196;-97.114;2023-05-14T06:28:05;2.30;;;1.90;;
19621;SDS011;9958;33.196;-97.114;2023-05-14T06:30:33;1.58;;;1.48;;
19621;SDS011;9958;33.196;-97.114;2023-05-14T06:33:03;2.63;;;1.65;;
19621;SDS011;9958;33.196;-97.114;2023-05-14T06:35:31;1.73;;;1.63;;
19621;SDS011;9958;33.196;-97.114;2023-05-14T06:38:01;2.00;;;1.80;;
19621;SDS011;9958;33.196;-97.114;2023-05-14T06:40:29;1.67;;;1.58;;
19621;SDS011;9958;33.196;-97.114;2023-05-14T06:42:58;2.85;;;2.05;;
19621;SDS011;9958;33.196;-97.114;2023-05-14T06:45:26;1.80;;;1.58;;
19621;SDS011;9958;33.196;-97.114;2023-05-14T06:47:54;2.30;;;2.00;;
19621;SDS011;9958;33.196;-97.114;2023-05-14T06:50:24;3.17;;;2.33;;
19621;SDS011;9958;33.196;-97.114;2023-05-14T06:52:52;3.13;;;1.83;;
19621;SDS011;9958;33.196;-97.114;2023-05-14T06:55:21;2.58;;;1.90;;
19621;SDS011;9958;33.196;-97.114;2023-05-14T06:57:49;3.70;;;1.73;;
19621;SDS011;9958;33.196;-97.114;2023-05-14T07:00:18;3.38;;;2.15;;
19621;SDS011;9958;33.196;-97.114;2023-05-14T07:02:47;2.38;;;1.70;;
19621;SDS011;9958;33.196;-97.114;2023-05-14T07:05:15;2.38;;;1.83;;
19621;SDS011;9958;33.196;-97.114;2023-05-14T07:07:45;4.03;;;2.05;;
19621;SDS011;9958;33.196;-97.114;2023-05-14T07:10:14;3.50;;;2.05;;
19621;SDS011;9958;33.196;-97.114;2023-05-14T07:12:42;3.92;;;1.90;;
19621;SDS011;9958;33.196;-97.114;2023-05-14T07:15:10;3.63;;;1.85;;
19621;SDS011;9958;33.196;-97.114;2023-05-14T07:17:39;3.38;;;2.00;;
19621;SDS011;9958;33.196;-97.114;2023-05-14T07:20:07;4.43;;;2.17;;
19621;SDS011;9958;33.196;-97.114;2023-05-14T07:22:36;2.25;;;2.00;;
19621;SDS011;9958;33.196;-97.114;2023-05-14T07:25:07;3.65;;;1.70;;
19621;SDS011;9958;33.196;-97.114;2023-05-14T07:27:35;3.50;;;2.17;;
19621;SDS011;9958;33.196;-97.114;2023-05-14T07:30:04;3.08;;;2.30;;
19621;SDS011;9958;33.196;-97.114;2023-05-14T07:32:33;3.50;;;2.10;;
19621;SDS011;9958;33.196;-97.114;2023-05-14T07:35:01;3.17;;;1.98;;
19621;SDS011;9958;33.196;-97.114;2023-05-14T07:37:30;4.82;;;1.88;;
19621;SDS011;9958;33.196;-97.114;2023-05-14T07:39:59;4.80;;;2.28;;
19621;SDS011;9958;33.196;-97.114;2023-05-14T07:42:28;2.22;;;2.03;;
19621;SDS011;9958;33.196;-97.114;2023-05-14T07:44:57;2.53;;;2.20;;
19621;SDS011;9958;33.196;-97.114;2023-05-14T07:47:25;3.38;;;2.20;;
19621;SDS011;9958;33.196;-97.114;2023-05-14T07:49:54;5.78;;;2.42;;
19621;SDS011;9958;33.196;-97.114;2023-05-14T07:52:23;2.72;;;2.13;;
19621;SDS011;9958;33.196;-97.114;2023-05-14T07:54:51;2.22;;;2.03;;
19621;SDS011;9958;33.196;-97.114;2023-05-14T07:57:19;2.65;;;2.08;;
19621;SDS011;9958;33.196;-97.114;2023-05-14T07:59:49;2.33;;;1.88;;
19621;SDS011;9958;33.196;-97.114;2023-05-14T08:02:18;3.25;;;2.35;;
19621;SDS011;9958;33.196;-97.114;2023-05-14T08:04:46;2.08;;;1.90;;
19621;SDS011;9958;33.196;-97.114;2023-05-14T08:07:14;2.08;;;1.88;;
19621;SDS011;9958;33.196;-97.114;2023-05-14T08:09:43;5.60;;;2.13;;
19621;SDS011;9958;33.196;-97.114;2023-05-14T08:12:11;4.13;;;2.10;;
19621;SDS011;9958;33.196;-97.114;2023-05-14T08:14:40;3.05;;;2.00;;
19621;SDS011;9958;33.196;-97.114;2023-05-14T08:17:10;2.75;;;2.30;;
19621;SDS011;9958;33.196;-97.114;2023-05-14T08:19:38;4.10;;;2.30;;
19621;SDS011;9958;33.196;-97.114;2023-05-14T08:22:07;4.50;;;2.30;;
19621;SDS011;9958;33.196;-97.114;2023-05-14T08:24:35;3.40;;;1.90;;
19621;SDS011;9958;33.196;-97.114;2023-05-14T08:27:03;3.97;;;2.13;;
19621;SDS011;9958;33.196;-97.114;2023-05-14T08:29:32;2.42;;;2.20;;
19621;SDS011;9958;33.196;-97.114;2023-05-14T08:32:00;2.75;;;2.45;;
19621;SDS011;9958;33.196;-97.114;2023-05-14T08:34:31;2.80;;;2.60;;
19621;SDS011;9958;33.196;-97.114;2023-05-14T08:36:59;2.47;;;2.10;;
19621;SDS011;9958;33.196;-97.114;2023-05-14T08:39:28;5.32;;;2.63;;
19621;SDS011;9958;33.196;-97.114;2023-05-14T08:41:56;3.78;;;2.30;;
19621;SDS011;9958;33.196;-97.114;2023-05-14T08:44:28;3.92;;;2.65;;
19621;SDS011;9958;33.196;-97.114;2023-05-14T08:47:02;4.13;;;2.58;;
19621;SDS011;9958;33.196;-97.114;2023-05-14T08:49:35;3.78;;;2.45;;
19621;SDS011;9958;33.196;-97.114;2023-05-14T08:52:09;2.83;;;2.47;;
19621;SDS011;9958;33.196;-97.114;2023-05-14T08:54:38;3.15;;;2.42;;
19621;SDS011;9958;33.196;-97.114;2023-05-14T08:57:07;2.50;;;2.20;;
19621;SDS011;9958;33.196;-97.114;2023-05-14T08:59:36;2.40;;;2.20;;
19621;SDS011;9958;33.196;-97.114;2023-05-14T09:02:05;7.80;;;2.90;;
19621;SDS011;9958;33.196;-97.114;2023-05-14T09:04:37;7.35;;;3.08;;
19621;SDS011;9958;33.196;-97.114;2023-05-14T09:07:06;2.97;;;2.67;;
19621;SDS011;9958;33.196;-97.114;2023-05-14T09:09:35;4.03;;;3.13;;
19621;SDS011;9958;33.196;-97.114;2023-05-14T09:12:04;3.30;;;2.80;;
19621;SDS011;9958;33.196;-97.114;2023-05-14T09:14:33;5.07;;;3.08;;
19621;SDS011;9958;33.196;-97.114;2023-05-14T09:17:02;3.80;;;2.60;;
19621;SDS011;9958;33.196;-97.114;2023-05-14T09:19:30;4.43;;;3.03;;
19621;SDS011;9958;33.196;-97.114;2023-05-14T09:22:00;3.85;;;2.80;;
19621;SDS011;9958;33.196;-97.114;2023-05-14T09:24:34;4.88;;;3.13;;
19621;SDS011;9958;33.196;-97.114;2023-05-14T09:27:03;4.15;;;3.08;;
19621;SDS011;9958;33.196;-97.114;2023-05-14T09:29:32;6.78;;;3.03;;
19621;SDS011;9958;33.196;-97.114;2023-05-14T09:32:01;4.00;;;2.97;;
19621;SDS011;9958;33.196;-97.114;2023-05-14T09:34:31;5.20;;;3.10;;
19621;SDS011;9958;33.196;-97.114;2023-05-14T09:37:04;6.35;;;2.95;;
19621;SDS011;9958;33.196;-97.114;2023-05-14T09:39:34;3.75;;;3.05;;
19621;SDS011;9958;33.196;-97.114;2023-05-14T09:42:05;4.50;;;3.40;;
19621;SDS011;9958;33.196;-97.114;2023-05-14T09:44:34;5.50;;;3.42;;
19621;SDS011;9958;33.196;-97.114;2023-05-14T09:47:02;5.38;;;3.30;;
19621;SDS011;9958;33.196;-97.114;2023-05-14T09:49:31;5.30;;;3.22;;
19621;SDS011;9958;33.196;-97.114;2023-05-14T09:52:00;5.47;;;3.08;;
19621;SDS011;9958;33.196;-97.114;2023-05-14T09:54:30;3.67;;;3.22;;
19621;SDS011;9958;33.196;-97.114;2023-05-14T09:56:59;5.13;;;3.17;;
19621;SDS011;9958;33.196;-97.114;2023-05-14T09:59:27;3.92;;;3.42;;
19621;SDS011;9958;33.196;-97.114;2023-05-14T10:01:56;4.88;;;3.55;;
19621;SDS011;9958;33.196;-97.114;2023-05-14T10:04:25;4.80;;;3.55;;
19621;SDS011;9958;33.196;-97.114;2023-05-14T10:06:53;4.70;;;3.60;;
19621;SDS011;9958;33.196;-97.114;2023-05-14T10:09:23;8.57;;;3.50;;
19621;SDS011;9958;33.196;-97.114;2023-05-14T10:11:56;5.07;;;3.35;;
19621;SDS011;9958;33.196;-97.114;2023-05-14T10:14:28;4.72;;;3.78;;
19621;SDS011;9958;33.196;-97.114;2023-05-14T10:17:04;4.75;;;3.20;;
19621;SDS011;9958;33.196;-97.114;2023-05-14T10:19:42;3.90;;;3.42;;
19621;SDS011;9958;33.196;-97.114;2023-05-14T10:22:14;4.22;;;3.13;;
19621;SDS011;9958;33.196;-97.114;2023-05-14T10:24:45;6.22;;;3.70;;
19621;SDS011;9958;33.196;-97.114;2023-05-14T10:27:18;5.70;;;3.28;;
19621;SDS011;9958;33.196;-97.114;2023-05-14T10:29:50;8.40;;;4.03;;
19621;SDS011;9958;33.196;-97.114;2023-05-14T10:32:20;4.70;;;3.38;;
19621;SDS011;9958;33.196;-97.114;2023-05-14T10:34:50;6.85;;;4.72;;
19621;SDS011;9958;33.196;-97.114;2023-05-14T10:37:20;5.50;;;3.20;;
19621;SDS011;9958;33.196;-97.114;2023-05-14T10:39:50;8.35;;;3.70;;
19621;SDS011;9958;33.196;-97.114;2023-05-14T10:42:23;4.97;;;3.47;;
19621;SDS011;9958;33.196;-97.114;2023-05-14T10:44:54;5.22;;;4.18;;
19621;SDS011;9958;33.196;-97.114;2023-05-14T10:47:23;3.72;;;3.33;;
19621;SDS011;9958;33.196;-97.114;2023-05-14T10:49:52;4.78;;;2.90;;
19621;SDS011;9958;33.196;-97.114;2023-05-14T10:52:22;6.38;;;3.55;;
19621;SDS011;9958;33.196;-97.114;2023-05-14T10:54:52;4.35;;;3.65;;
19621;SDS011;9958;33.196;-97.114;2023-05-14T10:57:23;4.07;;;3.63;;
19621;SDS011;9958;33.196;-97.114;2023-05-14T10:59:52;4.20;;;3.03;;
19621;SDS011;9958;33.196;-97.114;2023-05-14T11:02:22;4.53;;;3.13;;
19621;SDS011;9958;33.196;-97.114;2023-05-14T11:04:53;5.30;;;3.63;;
19621;SDS011;9958;33.196;-97.114;2023-05-14T11:07:24;6.68;;;3.65;;
19621;SDS011;9958;33.196;-97.114;2023-05-14T11:09:58;5.18;;;3.17;;
19621;SDS011;9958;33.196;-97.114;2023-05-14T11:12:32;5.20;;;3.47;;
19621;SDS011;9958;33.196;-97.114;2023-05-14T11:15:01;5.63;;;3.45;;
19621;SDS011;9958;33.196;-97.114;2023-05-14T11:17:31;8.55;;;4.25;;
19621;SDS011;9958;33.196;-97.114;2023-05-14T11:20:01;6.68;;;4.03;;
19621;SDS011;9958;33.196;-97.114;2023-05-14T11:22:30;4.90;;;3.22;;
19621;SDS011;9958;33.196;-97.114;2023-05-14T11:24:58;6.63;;;3.75;;
19621;SDS011;9958;33.196;-97.114;2023-05-14T11:27:27;3.78;;;3.33;;
19621;SDS011;9958;33.196;-97.114;2023-05-14T11:29:58;5.93;;;3.97;;
19621;SDS011;9958;33.196;-97.114;2023-05-14T11:32:26;5.38;;;4.15;;
19621;SDS011;9958;33.196;-97.114;2023-05-14T11:34:55;4.13;;;3.63;;
19621;SDS011;9958;33.196;-97.114;2023-05-14T11:37:23;4.85;;;4.35;;
19621;SDS011;9958;33.196;-97.114;2023-05-14T11:39:52;5.25;;;4.00;;
19621;SDS011;9958;33.196;-97.114;2023-05-14T11:42:21;4.93;;;4.43;;
19621;SDS011;9958;33.196;-97.114;2023-05-14T11:44:50;8.88;;;4.38;;
19621;SDS011;9958;33.196;-97.114;2023-05-14T11:47:21;6.00;;;4.25;;
19621;SDS011;9958;33.196;-97.114;2023-05-14T11:49:49;6.50;;;4.63;;
19621;SDS011;9958;33.196;-97.114;2023-05-14T11:52:19;5.45;;;4.22;;
19621;SDS011;9958;33.196;-97.114;2023-05-14T11:54:47;9.55;;;4.47;;
19621;SDS011;9958;33.196;-97.114;2023-05-14T11:57:16;6.20;;;4.47;;
19621;SDS011;9958;33.196;-97.114;2023-05-14T11:59:46;6.82;;;4.82;;
19621;SDS011;9958;33.196;-97.114;2023-05-14T12:02:16;7.18;;;4.18;;
19621;SDS011;9958;33.196;-97.114;2023-05-14T12:04:49;6.00;;;4.57;;
19621;SDS011;9958;33.196;-97.114;2023-05-14T12:07:19;7.70;;;5.03;;
19621;SDS011;9958;33.196;-97.114;2023-05-14T12:09:48;6.15;;;4.38;;
19621;SDS011;9958;33.196;-97.114;2023-05-14T12:12:18;5.55;;;4.57;;
19621;SDS011;9958;33.196;-97.114;2023-05-14T12:14:48;10.65;;;4.93;;
19621;SDS011;9958;33.196;-97.114;2023-05-14T12:17:17;5.95;;;5.05;;
19621;SDS011;9958;33.196;-97.114;2023-05-14T12:19:46;7.88;;;5.57;;
19621;SDS011;9958;33.196;-97.114;2023-05-14T12:22:18;7.47;;;5.50;;
19621;SDS011;9958;33.196;-97.114;2023-05-14T12:24:51;5.47;;;4.72;;
19621;SDS011;9958;33.196;-97.114;2023-05-14T12:27:20;6.88;;;5.00;;
19621;SDS011;9958;33.196;-97.114;2023-05-14T12:29:49;8.38;;;5.05;;
19621;SDS011;9958;33.196;-97.114;2023-05-14T12:32:24;10.10;;;5.10;;
19621;SDS011;9958;33.196;-97.114;2023-05-14T12:34:53;7.93;;;5.43;;
19621;SDS011;9958;33.196;-97.114;2023-05-14T12:37:22;7.25;;;5.40;;
19621;SDS011;9958;33.196;-97.114;2023-05-14T12:39:51;8.98;;;5.55;;
19621;SDS011;9958;33.196;-97.114;2023-05-14T12:42:19;6.43;;;5.75;;
19621;SDS011;9958;33.196;-97.114;2023-05-14T12:44:48;8.13;;;6.20;;
19621;SDS011;9958;33.196;-97.114;2023-05-14T12:47:16;8.38;;;5.55;;
19621;SDS011;9958;33.196;-97.114;2023-05-14T12:49:45;7.75;;;6.20;;
19621;SDS011;9958;33.196;-97.114;2023-05-14T12:52:13;10.82;;;5.82;;
19621;SDS011;9958;33.196;-97.114;2023-05-14T12:54:43;6.70;;;5.15;;
19621;SDS011;9958;33.196;-97.114;2023-05-14T12:57:11;7.97;;;5.82;;
19621;SDS011;9958;33.196;-97.114;2023-05-14T12:59:40;8.32;;;5.57;;
19621;SDS011;9958;33.196;-97.114;2023-05-14T13:02:08;9.35;;;6.57;;
19621;SDS011;9958;33.196;-97.114;2023-05-14T13:04:36;6.10;;;5.40;;
19621;SDS011;9958;33.196;-97.114;2023-05-14T13:07:05;7.90;;;6.18;;
19621;SDS011;9958;33.196;-97.114;2023-05-14T13:09:34;8.57;;;6.03;;
19621;SDS011;9958;33.196;-97.114;2023-05-14T13:12:04;14.18;;;6.78;;
19621;SDS011;9958;33.196;-97.114;2023-05-14T13:14:33;7.75;;;6.57;;
19621;SDS011;9958;33.196;-97.114;2023-05-14T13:17:02;7.38;;;5.88;;
19621;SDS011;9958;33.196;-97.114;2023-05-14T13:19:32;9.25;;;6.93;;
19621;SDS011;9958;33.196;-97.114;2023-05-14T13:22:00;8.25;;;6.60;;
19621;SDS011;9958;33.196;-97.114;2023-05-14T13:24:28;8.77;;;6.97;;
19621;SDS011;9958;33.196;-97.114;2023-05-14T13:26:57;12.13;;;7.68;;
19621;SDS011;9958;33.196;-97.114;2023-05-14T13:29:27;8.90;;;6.22;;
19621;SDS011;9958;33.196;-97.114;2023-05-14T13:31:56;9.13;;;6.95;;
19621;SDS011;9958;33.196;-97.114;2023-05-14T13:34:24;8.05;;;6.38;;
19621;SDS011;9958;33.196;-97.114;2023-05-14T13:36:52;9.98;;;7.25;;
19621;SDS011;9958;33.196;-97.114;2023-05-14T13:39:21;8.95;;;6.80;;
19621;SDS011;9958;33.196;-97.114;2023-05-14T13:41:51;9.45;;;7.38;;
19621;SDS011;9958;33.196;-97.114;2023-05-14T13:44:21;9.93;;;6.95;;
19621;SDS011;9958;33.196;-97.114;2023-05-14T13:46:51;8.50;;;6.75;;
19621;SDS011;9958;33.196;-97.114;2023-05-14T13:49:19;7.75;;;6.40;;
19621;SDS011;9958;33.196;-97.114;2023-05-14T13:51:47;9.30;;;6.95;;
19621;SDS011;9958;33.196;-97.114;2023-05-14T13:54:16;9.73;;;6.70;;
19621;SDS011;9958;33.196;-97.114;2023-05-14T13:56:44;9.25;;;7.18;;
19621;SDS011;9958;33.196;-97.114;2023-05-14T13:59:12;10.63;;;7.10;;
19621;SDS011;9958;33.196;-97.114;2023-05-14T14:01:41;8.77;;;6.53;;
19621;SDS011;9958;33.196;-97.114;2023-05-14T14:04:11;9.07;;;6.57;;
19621;SDS011;9958;33.196;-97.114;2023-05-14T14:06:40;8.05;;;6.05;;
19621;SDS011;9958;33.196;-97.114;2023-05-14T14:09:09;10.45;;;6.60;;
19621;SDS011;9958;33.196;-97.114;2023-05-14T14:11:38;10.80;;;7.65;;
19621;SDS011;9958;33.196;-97.114;2023-05-14T14:14:07;9.38;;;6.55;;
19621;SDS011;9958;33.196;-97.114;2023-05-14T14:16:35;9.90;;;6.85;;
19621;SDS011;9958;33.196;-97.114;2023-05-14T14:19:03;9.85;;;6.88;;
19621;SDS011;9958;33.196;-97.114;2023-05-14T14:21:33;9.98;;;6.82;;
19621;SDS011;9958;33.196;-97.114;2023-05-14T14:24:04;8.30;;;6.28;;
19621;SDS011;9958;33.196;-97.114;2023-05-14T14:26:33;9.10;;;7.32;;
19621;SDS011;9958;33.196;-97.114;2023-05-14T14:29:01;10.60;;;6.55;;
19621;SDS011;9958;33.196;-97.114;2023-05-14T14:31:29;10.57;;;7.10;;
19621;SDS011;9958;33.196;-97.114;2023-05-14T14:33:58;10.63;;;6.55;;
19621;SDS011;9958;33.196;-97.114;2023-05-14T14:36:26;8.85;;;5.35;;
19621;SDS011;9958;33.196;-97.114;2023-05-14T14:38:56;10.25;;;6.55;;
19621;SDS011;9958;33.196;-97.114;2023-05-14T14:41:25;8.77;;;6.32;;
19621;SDS011;9958;33.196;-97.114;2023-05-14T14:43:53;11.57;;;6.57;;